sensor_id;sensor_type;location;lat;lon;timestamp;P1;durP1;ratioP1;P2;durP2;ratioP2
8419;SDS011;4247;48.550;8.822;2022-11-14T00:00:43;4.97;;;4.20;;
8419;SDS011;4247;48.550;8.822;2022-11-14T00:03:11;4.77;;;4.20;;
8419;SDS011;4247;48.550;8.822;2022-11-14T00:05:38;4.90;;;4.03;;
8419;SDS011;4247;48.550;8.822;2022-11-14T00:08:08;6.17;;;4.20;;
8419;SDS011;4247;48.550;8.822;2022-11-14T00:10:42;5.37;;;4.13;;
8419;SDS011;4247;48.550;8.822;2022-11-14T00:13:11;5.27;;;4.03;;
8419;SDS011;4247;48.550;8.822;2022-11-14T00:15:37;5.70;;;4.63;;
8419;SDS011;4247;48.550;8.822;2022-11-14T00:18:04;8.47;;;5.30;;
8419;SDS011;4247;48.550;8.822;2022-11-14T00:20:31;5.03;;;4.23;;
8419;SDS011;4247;48.550;8.822;2022-11-14T00:22:58;5.17;;;4.03;;
8419;SDS011;4247;48.550;8.822;2022-11-14T00:25:25;6.43;;;4.50;;
8419;SDS011;4247;48.550;8.822;2022-11-14T00:27:56;6.40;;;4.33;;
8419;SDS011;4247;48.550;8.822;2022-11-14T00:30:23;6.33;;;4.23;;
8419;SDS011;4247;48.550;8.822;2022-11-14T00:32:50;5.63;;;4.37;;
8419;SDS011;4247;48.550;8.822;2022-11-14T00:35:17;7.13;;;4.73;;
8419;SDS011;4247;48.550;8.822;2022-11-14T00:37:44;7.53;;;4.47;;
8419;SDS011;4247;48.550;8.822;2022-11-14T00:40:11;5.80;;;4.27;;
8419;SDS011;4247;48.550;8.822;2022-11-14T00:42:38;6.83;;;4.63;;
8419;SDS011;4247;48.550;8.822;2022-11-14T00:45:07;8.30;;;5.10;;
8419;SDS011;4247;48.550;8.822;2022-11-14T00:47:35;6.87;;;4.70;;
8419;SDS011;4247;48.550;8.822;2022-11-14T00:50:01;6.37;;;4.43;;
8419;SDS011;4247;48.550;8.822;2022-11-14T00:52:29;5.00;;;3.70;;
8419;SDS011;4247;48.550;8.822;2022-11-14T00:54:56;6.43;;;4.30;;
8419;SDS011;4247;48.550;8.822;2022-11-14T00:57:22;5.17;;;4.67;;
8419;SDS011;4247;48.550;8.822;2022-11-14T00:59:49;5.10;;;4.40;;
8419;SDS011;4247;48.550;8.822;2022-11-14T01:02:20;4.90;;;3.97;;
8419;SDS011;4247;48.550;8.822;2022-11-14T01:04:48;4.63;;;4.17;;
8419;SDS011;4247;48.550;8.822;2022-11-14T01:07:15;4.40;;;3.93;;
8419;SDS011;4247;48.550;8.822;2022-11-14T01:09:42;4.83;;;3.90;;
8419;SDS011;4247;48.550;8.822;2022-11-14T01:12:09;5.07;;;3.93;;
8419;SDS011;4247;48.550;8.822;2022-11-14T01:14:35;6.83;;;4.83;;
8419;SDS011;4247;48.550;8.822;2022-11-14T01:17:02;5.63;;;4.93;;
8419;SDS011;4247;48.550;8.822;2022-11-14T01:19:31;6.13;;;5.13;;
8419;SDS011;4247;48.550;8.822;2022-11-14T01:21:58;6.50;;;4.17;;
8419;SDS011;4247;48.550;8.822;2022-11-14T01:24:24;6.73;;;4.87;;
8419;SDS011;4247;48.550;8.822;2022-11-14T01:26:53;6.23;;;4.70;;
8419;SDS011;4247;48.550;8.822;2022-11-14T01:29:20;7.17;;;4.83;;
8419;SDS011;4247;48.550;8.822;2022-11-14T01:31:47;6.03;;;4.73;;
8419;SDS011;4247;48.550;8.822;2022-11-14T01:34:14;6.17;;;4.40;;
8419;SDS011;4247;48.550;8.822;2022-11-14T01:36:42;6.33;;;4.43;;
8419;SDS011;4247;48.550;8.822;2022-11-14T01:39:09;9.07;;;5.23;;
8419;SDS011;4247;48.550;8.822;2022-11-14T01:41:35;7.77;;;5.07;;
8419;SDS011;4247;48.550;8.822;2022-11-14T01:44:02;6.47;;;4.57;;
8419;SDS011;4247;48.550;8.822;2022-11-14T01:46:38;5.47;;;4.27;;
8419;SDS011;4247;48.550;8.822;2022-11-14T01:49:10;6.40;;;5.13;;
8419;SDS011;4247;48.550;8.822;2022-11-14T01:51:46;7.20;;;5.47;;
8419;SDS011;4247;48.550;8.822;2022-11-14T01:54:17;5.27;;;4.20;;
8419;SDS011;4247;48.550;8.822;2022-11-14T01:56:47;6.70;;;4.90;;
8419;SDS011;4247;48.550;8.822;2022-11-14T01:59:20;5.30;;;4.30;;
8419;SDS011;4247;48.550;8.822;2022-11-14T02:01:50;5.70;;;4.00;;
8419;SDS011;4247;48.550;8.822;2022-11-14T02:04:19;5.73;;;4.70;;
8419;SDS011;4247;48.550;8.822;2022-11-14T02:06:49;6.53;;;5.20;;
8419;SDS011;4247;48.550;8.822;2022-11-14T02:09:20;5.90;;;5.07;;
8419;SDS011;4247;48.550;8.822;2022-11-14T02:11:47;6.23;;;4.77;;
8419;SDS011;4247;48.550;8.822;2022-11-14T02:14:15;6.00;;;4.27;;
8419;SDS011;4247;48.550;8.822;2022-11-14T02:16:42;6.50;;;4.80;;
8419;SDS011;4247;48.550;8.822;2022-11-14T02:19:10;5.57;;;4.40;;
8419;SDS011;4247;48.550;8.822;2022-11-14T02:21:41;7.67;;;5.37;;
8419;SDS011;4247;48.550;8.822;2022-11-14T02:24:08;6.07;;;4.00;;
8419;SDS011;4247;48.550;8.822;2022-11-14T02:26:36;5.63;;;4.47;;
8419;SDS011;4247;48.550;8.822;2022-11-14T02:29:04;6.50;;;5.07;;
8419;SDS011;4247;48.550;8.822;2022-11-14T02:31:32;6.53;;;4.40;;
8419;SDS011;4247;48.550;8.822;2022-11-14T02:33:59;9.67;;;5.37;;
8419;SDS011;4247;48.550;8.822;2022-11-14T02:36:26;6.90;;;4.77;;
8419;SDS011;4247;48.550;8.822;2022-11-14T02:38:54;6.90;;;5.23;;
8419;SDS011;4247;48.550;8.822;2022-11-14T02:41:21;6.83;;;4.50;;
8419;SDS011;4247;48.550;8.822;2022-11-14T02:43:48;7.63;;;4.67;;
8419;SDS011;4247;48.550;8.822;2022-11-14T02:46:15;5.57;;;4.97;;
8419;SDS011;4247;48.550;8.822;2022-11-14T02:48:42;5.77;;;4.17;;
8419;SDS011;4247;48.550;8.822;2022-11-14T02:51:09;7.50;;;5.20;;
8419;SDS011;4247;48.550;8.822;2022-11-14T02:53:36;6.13;;;4.83;;
8419;SDS011;4247;48.550;8.822;2022-11-14T02:56:04;5.87;;;4.83;;
8419;SDS011;4247;48.550;8.822;2022-11-14T02:58:31;5.90;;;4.70;;
8419;SDS011;4247;48.550;8.822;2022-11-14T03:00:58;7.10;;;5.23;;
8419;SDS011;4247;48.550;8.822;2022-11-14T03:03:25;7.37;;;4.13;;
8419;SDS011;4247;48.550;8.822;2022-11-14T03:05:51;5.97;;;4.47;;
8419;SDS011;4247;48.550;8.822;2022-11-14T03:08:23;8.67;;;4.97;;
8419;SDS011;4247;48.550;8.822;2022-11-14T03:10:50;7.10;;;5.27;;
8419;SDS011;4247;48.550;8.822;2022-11-14T03:13:18;5.97;;;4.53;;
8419;SDS011;4247;48.550;8.822;2022-11-14T03:15:45;6.07;;;4.77;;
8419;SDS011;4247;48.550;8.822;2022-11-14T03:18:12;9.90;;;4.17;;
8419;SDS011;4247;48.550;8.822;2022-11-14T03:20:39;6.80;;;4.53;;
8419;SDS011;4247;48.550;8.822;2022-11-14T03:23:06;5.90;;;4.70;;
8419;SDS011;4247;48.550;8.822;2022-11-14T03:25:33;6.10;;;4.77;;
8419;SDS011;4247;48.550;8.822;2022-11-14T03:28:00;6.97;;;4.80;;
8419;SDS011;4247;48.550;8.822;2022-11-14T03:30:28;6.27;;;4.47;;
8419;SDS011;4247;48.550;8.822;2022-11-14T03:32:55;7.83;;;5.30;;
8419;SDS011;4247;48.550;8.822;2022-11-14T03:35:22;6.97;;;5.33;;
8419;SDS011;4247;48.550;8.822;2022-11-14T03:37:49;6.40;;;4.77;;
8419;SDS011;4247;48.550;8.822;2022-11-14T03:40:16;6.90;;;5.67;;
8419;SDS011;4247;48.550;8.822;2022-11-14T03:42:42;6.70;;;5.03;;
8419;SDS011;4247;48.550;8.822;2022-11-14T03:45:09;33.77;;;6.67;;
8419;SDS011;4247;48.550;8.822;2022-11-14T03:47:38;26.57;;;6.67;;
8419;SDS011;4247;48.550;8.822;2022-11-14T03:50:05;29.00;;;6.90;;
8419;SDS011;4247;48.550;8.822;2022-11-14T03:52:32;36.67;;;7.67;;
8419;SDS011;4247;48.550;8.822;2022-11-14T03:54:59;12.70;;;6.80;;
8419;SDS011;4247;48.550;8.822;2022-11-14T03:57:26;20.50;;;7.20;;
8419;SDS011;4247;48.550;8.822;2022-11-14T03:59:53;17.00;;;5.93;;
8419;SDS011;4247;48.550;8.822;2022-11-14T04:02:20;25.63;;;7.87;;
8419;SDS011;4247;48.550;8.822;2022-11-14T04:04:48;30.80;;;7.43;;
8419;SDS011;4247;48.550;8.822;2022-11-14T04:07:15;38.57;;;6.63;;
8419;SDS011;4247;48.550;8.822;2022-11-14T04:09:42;39.77;;;8.00;;
8419;SDS011;4247;48.550;8.822;2022-11-14T04:12:11;15.67;;;6.47;;
8419;SDS011;4247;48.550;8.822;2022-11-14T04:14:37;16.70;;;6.40;;
8419;SDS011;4247;48.550;8.822;2022-11-14T04:17:04;16.27;;;6.60;;
8419;SDS011;4247;48.550;8.822;2022-11-14T04:19:31;24.03;;;6.63;;
8419;SDS011;4247;48.550;8.822;2022-11-14T04:21:59;10.93;;;5.73;;
8419;SDS011;4247;48.550;8.822;2022-11-14T04:24:27;8.50;;;5.93;;
8419;SDS011;4247;48.550;8.822;2022-11-14T04:26:54;8.83;;;5.93;;
8419;SDS011;4247;48.550;8.822;2022-11-14T04:29:21;9.87;;;4.93;;
8419;SDS011;4247;48.550;8.822;2022-11-14T04:31:48;9.13;;;5.70;;
8419;SDS011;4247;48.550;8.822;2022-11-14T04:34:15;8.57;;;5.30;;
8419;SDS011;4247;48.550;8.822;2022-11-14T04:36:41;7.20;;;5.43;;
8419;SDS011;4247;48.550;8.822;2022-11-14T04:39:10;8.40;;;5.20;;
8419;SDS011;4247;48.550;8.822;2022-11-14T04:41:36;7.77;;;5.13;;
8419;SDS011;4247;48.550;8.822;2022-11-14T04:44:03;9.23;;;5.57;;
8419;SDS011;4247;48.550;8.822;2022-11-14T04:46:30;7.70;;;4.87;;
8419;SDS011;4247;48.550;8.822;2022-11-14T04:48:57;8.30;;;5.10;;
8419;SDS011;4247;48.550;8.822;2022-11-14T04:51:23;9.03;;;6.17;;
8419;SDS011;4247;48.550;8.822;2022-11-14T04:53:50;7.93;;;4.93;;
8419;SDS011;4247;48.550;8.822;2022-11-14T04:56:19;9.87;;;5.60;;
8419;SDS011;4247;48.550;8.822;2022-11-14T04:58:47;6.67;;;5.00;;
8419;SDS011;4247;48.550;8.822;2022-11-14T05:01:14;7.83;;;5.10;;
8419;SDS011;4247;48.550;8.822;2022-11-14T05:03:41;10.40;;;5.67;;
8419;SDS011;4247;48.550;8.822;2022-11-14T05:06:08;6.97;;;5.17;;
8419;SDS011;4247;48.550;8.822;2022-11-14T05:08:35;6.33;;;4.73;;
8419;SDS011;4247;48.550;8.822;2022-11-14T05:11:02;9.53;;;5.97;;
8419;SDS011;4247;48.550;8.822;2022-11-14T05:13:30;7.70;;;5.57;;
8419;SDS011;4247;48.550;8.822;2022-11-14T05:15:58;8.57;;;5.10;;
8419;SDS011;4247;48.550;8.822;2022-11-14T05:18:25;8.43;;;5.80;;
8419;SDS011;4247;48.550;8.822;2022-11-14T05:20:52;98.20;;;11.37;;
8419;SDS011;4247;48.550;8.822;2022-11-14T05:23:22;112.77;;;12.57;;
8419;SDS011;4247;48.550;8.822;2022-11-14T05:25:57;156.30;;;12.93;;
8419;SDS011;4247;48.550;8.822;2022-11-14T05:28:24;324.63;;;24.73;;
8419;SDS011;4247;48.550;8.822;2022-11-14T05:30:58;158.83;;;18.97;;
8419;SDS011;4247;48.550;8.822;2022-11-14T05:33:26;196.33;;;15.67;;
8419;SDS011;4247;48.550;8.822;2022-11-14T05:35:52;202.30;;;14.47;;
8419;SDS011;4247;48.550;8.822;2022-11-14T05:38:19;54.67;;;7.60;;
8419;SDS011;4247;48.550;8.822;2022-11-14T05:40:46;14.97;;;6.03;;
8419;SDS011;4247;48.550;8.822;2022-11-14T05:43:13;15.63;;;7.37;;
8419;SDS011;4247;48.550;8.822;2022-11-14T05:45:40;7.93;;;5.60;;
8419;SDS011;4247;48.550;8.822;2022-11-14T05:48:08;14.83;;;8.07;;
8419;SDS011;4247;48.550;8.822;2022-11-14T05:50:35;11.60;;;7.03;;
8419;SDS011;4247;48.550;8.822;2022-11-14T05:53:01;20.47;;;5.90;;
8419;SDS011;4247;48.550;8.822;2022-11-14T05:55:28;82.83;;;7.83;;
8419;SDS011;4247;48.550;8.822;2022-11-14T05:57:56;114.60;;;9.60;;
8419;SDS011;4247;48.550;8.822;2022-11-14T06:00:23;239.57;;;13.67;;
8419;SDS011;4247;48.550;8.822;2022-11-14T06:02:51;146.97;;;10.47;;
8419;SDS011;4247;48.550;8.822;2022-11-14T06:05:19;100.00;;;12.33;;
8419;SDS011;4247;48.550;8.822;2022-11-14T06:07:47;45.83;;;6.83;;
8419;SDS011;4247;48.550;8.822;2022-11-14T06:10:19;102.87;;;10.67;;
8419;SDS011;4247;48.550;8.822;2022-11-14T06:12:46;80.13;;;7.13;;
8419;SDS011;4247;48.550;8.822;2022-11-14T06:15:13;111.20;;;9.37;;
8419;SDS011;4247;48.550;8.822;2022-11-14T06:17:40;127.43;;;11.17;;
8419;SDS011;4247;48.550;8.822;2022-11-14T06:20:08;174.00;;;11.40;;
8419;SDS011;4247;48.550;8.822;2022-11-14T06:22:38;131.63;;;12.00;;
8419;SDS011;4247;48.550;8.822;2022-11-14T06:25:05;22.97;;;6.67;;
8419;SDS011;4247;48.550;8.822;2022-11-14T06:27:33;40.67;;;6.00;;
8419;SDS011;4247;48.550;8.822;2022-11-14T06:29:59;74.90;;;7.53;;
8419;SDS011;4247;48.550;8.822;2022-11-14T06:32:27;35.10;;;5.50;;
8419;SDS011;4247;48.550;8.822;2022-11-14T06:34:53;26.77;;;6.07;;
8419;SDS011;4247;48.550;8.822;2022-11-14T06:37:20;66.57;;;8.17;;
8419;SDS011;4247;48.550;8.822;2022-11-14T06:39:49;6.47;;;4.70;;
8419;SDS011;4247;48.550;8.822;2022-11-14T06:42:15;6.13;;;3.87;;
8419;SDS011;4247;48.550;8.822;2022-11-14T06:44:42;6.90;;;4.30;;
8419;SDS011;4247;48.550;8.822;2022-11-14T06:47:09;5.97;;;4.17;;
8419;SDS011;4247;48.550;8.822;2022-11-14T06:49:36;5.87;;;4.17;;
8419;SDS011;4247;48.550;8.822;2022-11-14T06:52:03;5.37;;;4.33;;
8419;SDS011;4247;48.550;8.822;2022-11-14T06:54:30;4.20;;;3.77;;
8419;SDS011;4247;48.550;8.822;2022-11-14T06:56:58;9.90;;;3.73;;
8419;SDS011;4247;48.550;8.822;2022-11-14T06:59:25;6.63;;;4.60;;
8419;SDS011;4247;48.550;8.822;2022-11-14T07:01:52;5.77;;;4.33;;
8419;SDS011;4247;48.550;8.822;2022-11-14T07:04:19;5.37;;;4.57;;
8419;SDS011;4247;48.550;8.822;2022-11-14T07:06:46;5.63;;;4.20;;
8419;SDS011;4247;48.550;8.822;2022-11-14T07:09:12;8.67;;;4.37;;
8419;SDS011;4247;48.550;8.822;2022-11-14T07:11:39;6.27;;;4.53;;
8419;SDS011;4247;48.550;8.822;2022-11-14T07:14:10;7.07;;;5.10;;
8419;SDS011;4247;48.550;8.822;2022-11-14T07:16:37;7.70;;;4.10;;
8419;SDS011;4247;48.550;8.822;2022-11-14T07:19:05;7.30;;;5.07;;
8419;SDS011;4247;48.550;8.822;2022-11-14T07:21:33;9.07;;;5.77;;
8419;SDS011;4247;48.550;8.822;2022-11-14T07:24:00;7.53;;;5.20;;
8419;SDS011;4247;48.550;8.822;2022-11-14T07:26:27;9.23;;;4.97;;
8419;SDS011;4247;48.550;8.822;2022-11-14T07:28:54;8.73;;;5.60;;
8419;SDS011;4247;48.550;8.822;2022-11-14T07:31:22;9.43;;;6.47;;
8419;SDS011;4247;48.550;8.822;2022-11-14T07:33:49;13.73;;;6.13;;
8419;SDS011;4247;48.550;8.822;2022-11-14T07:36:16;11.97;;;8.63;;
8419;SDS011;4247;48.550;8.822;2022-11-14T07:38:43;17.57;;;8.53;;
8419;SDS011;4247;48.550;8.822;2022-11-14T07:41:10;16.33;;;10.23;;
8419;SDS011;4247;48.550;8.822;2022-11-14T07:43:38;14.00;;;7.53;;
8419;SDS011;4247;48.550;8.822;2022-11-14T07:46:06;10.43;;;6.53;;
8419;SDS011;4247;48.550;8.822;2022-11-14T07:48:36;6.70;;;4.87;;
8419;SDS011;4247;48.550;8.822;2022-11-14T07:51:04;10.17;;;4.63;;
8419;SDS011;4247;48.550;8.822;2022-11-14T07:53:33;9.07;;;5.30;;
8419;SDS011;4247;48.550;8.822;2022-11-14T07:56:00;8.77;;;5.47;;
8419;SDS011;4247;48.550;8.822;2022-11-14T07:58:29;7.23;;;4.70;;
8419;SDS011;4247;48.550;8.822;2022-11-14T08:00:59;14.67;;;5.57;;
8419;SDS011;4247;48.550;8.822;2022-11-14T08:03:26;8.67;;;5.50;;
8419;SDS011;4247;48.550;8.822;2022-11-14T08:05:59;8.03;;;5.40;;
8419;SDS011;4247;48.550;8.822;2022-11-14T08:08:27;9.50;;;6.17;;
8419;SDS011;4247;48.550;8.822;2022-11-14T08:10:54;9.50;;;5.80;;
8419;SDS011;4247;48.550;8.822;2022-11-14T08:13:23;10.67;;;6.50;;
8419;SDS011;4247;48.550;8.822;2022-11-14T08:15:50;10.77;;;5.23;;
8419;SDS011;4247;48.550;8.822;2022-11-14T08:18:17;8.97;;;5.40;;
8419;SDS011;4247;48.550;8.822;2022-11-14T08:20:43;7.83;;;4.70;;
8419;SDS011;4247;48.550;8.822;2022-11-14T08:23:12;10.40;;;6.77;;
8419;SDS011;4247;48.550;8.822;2022-11-14T08:25:39;11.40;;;5.87;;
8419;SDS011;4247;48.550;8.822;2022-11-14T08:28:07;7.93;;;5.67;;
8419;SDS011;4247;48.550;8.822;2022-11-14T08:30:34;9.07;;;5.53;;
8419;SDS011;4247;48.550;8.822;2022-11-14T08:33:01;9.17;;;6.13;;
8419;SDS011;4247;48.550;8.822;2022-11-14T08:35:28;9.03;;;6.10;;
8419;SDS011;4247;48.550;8.822;2022-11-14T08:37:55;7.90;;;5.10;;
8419;SDS011;4247;48.550;8.822;2022-11-14T08:40:24;7.57;;;5.93;;
8419;SDS011;4247;48.550;8.822;2022-11-14T08:42:50;7.40;;;5.87;;
8419;SDS011;4247;48.550;8.822;2022-11-14T08:45:17;8.83;;;6.13;;
8419;SDS011;4247;48.550;8.822;2022-11-14T08:47:49;7.37;;;5.97;;
8419;SDS011;4247;48.550;8.822;2022-11-14T08:50:17;12.67;;;6.87;;
8419;SDS011;4247;48.550;8.822;2022-11-14T08:52:47;7.27;;;6.03;;
8419;SDS011;4247;48.550;8.822;2022-11-14T08:55:15;8.53;;;6.13;;
8419;SDS011;4247;48.550;8.822;2022-11-14T08:57:44;12.90;;;5.77;;
8419;SDS011;4247;48.550;8.822;2022-11-14T09:00:12;8.20;;;5.97;;
8419;SDS011;4247;48.550;8.822;2022-11-14T09:02:39;7.97;;;5.07;;
8419;SDS011;4247;48.550;8.822;2022-11-14T09:05:06;8.03;;;5.43;;
8419;SDS011;4247;48.550;8.822;2022-11-14T09:07:34;9.17;;;6.47;;
8419;SDS011;4247;48.550;8.822;2022-11-14T09:10:01;6.20;;;5.10;;
8419;SDS011;4247;48.550;8.822;2022-11-14T09:12:29;11.83;;;5.27;;
8419;SDS011;4247;48.550;8.822;2022-11-14T09:14:57;13.37;;;5.57;;
8419;SDS011;4247;48.550;8.822;2022-11-14T09:17:24;7.83;;;5.73;;
8419;SDS011;4247;48.550;8.822;2022-11-14T09:19:50;8.77;;;5.67;;
8419;SDS011;4247;48.550;8.822;2022-11-14T09:22:18;11.63;;;6.17;;
8419;SDS011;4247;48.550;8.822;2022-11-14T09:24:44;6.17;;;4.97;;
8419;SDS011;4247;48.550;8.822;2022-11-14T09:27:13;7.63;;;5.77;;
8419;SDS011;4247;48.550;8.822;2022-11-14T09:29:41;7.73;;;5.50;;
8419;SDS011;4247;48.550;8.822;2022-11-14T09:32:09;6.67;;;4.73;;
8419;SDS011;4247;48.550;8.822;2022-11-14T09:34:36;8.43;;;5.50;;
8419;SDS011;4247;48.550;8.822;2022-11-14T09:37:06;10.13;;;6.37;;
8419;SDS011;4247;48.550;8.822;2022-11-14T09:39:33;8.23;;;5.90;;
8419;SDS011;4247;48.550;8.822;2022-11-14T09:42:10;6.53;;;4.93;;
8419;SDS011;4247;48.550;8.822;2022-11-14T09:44:48;6.90;;;4.80;;
8419;SDS011;4247;48.550;8.822;2022-11-14T09:47:22;6.47;;;4.70;;
8419;SDS011;4247;48.550;8.822;2022-11-14T09:49:53;10.57;;;5.23;;
8419;SDS011;4247;48.550;8.822;2022-11-14T09:52:25;8.33;;;5.33;;
8419;SDS011;4247;48.550;8.822;2022-11-14T09:55:00;7.43;;;5.00;;
8419;SDS011;4247;48.550;8.822;2022-11-14T09:57:35;5.20;;;3.97;;
8419;SDS011;4247;48.550;8.822;2022-11-14T10:00:03;4.80;;;4.30;;
8419;SDS011;4247;48.550;8.822;2022-11-14T10:02:40;6.47;;;3.93;;
8419;SDS011;4247;48.550;8.822;2022-11-14T10:05:20;6.07;;;4.00;;
8419;SDS011;4247;48.550;8.822;2022-11-14T10:07:58;3.70;;;2.40;;
8419;SDS011;4247;48.550;8.822;2022-11-14T10:10:38;5.23;;;3.00;;
8419;SDS011;4247;48.550;8.822;2022-11-14T10:13:15;2.43;;;2.20;;
8419;SDS011;4247;48.550;8.822;2022-11-14T10:15:51;6.53;;;1.60;;
8419;SDS011;4247;48.550;8.822;2022-11-14T10:18:30;2.33;;;1.40;;
8419;SDS011;4247;48.550;8.822;2022-11-14T10:21:08;4.67;;;2.40;;
8419;SDS011;4247;48.550;8.822;2022-11-14T10:23:51;1.70;;;1.60;;
8419;SDS011;4247;48.550;8.822;2022-11-14T10:26:25;1.97;;;1.57;;
8419;SDS011;4247;48.550;8.822;2022-11-14T10:29:02;0.70;;;0.70;;
8419;SDS011;4247;48.550;8.822;2022-11-14T10:31:50;1.00;;;0.50;;
8419;SDS011;4247;48.550;8.822;2022-11-14T10:34:28;0.60;;;0.60;;
8419;SDS011;4247;48.550;8.822;2022-11-14T10:37:00;1.00;;;0.80;;
8419;SDS011;4247;48.550;8.822;2022-11-14T10:39:34;0.57;;;0.50;;
8419;SDS011;4247;48.550;8.822;2022-11-14T10:42:07;2.03;;;1.17;;
8419;SDS011;4247;48.550;8.822;2022-11-14T10:44:39;1.80;;;0.93;;
8419;SDS011;4247;48.550;8.822;2022-11-14T10:47:15;1.07;;;0.60;;
8419;SDS011;4247;48.550;8.822;2022-11-14T10:49:48;1.07;;;0.70;;
8419;SDS011;4247;48.550;8.822;2022-11-14T10:52:21;0.60;;;0.60;;
8419;SDS011;4247;48.550;8.822;2022-11-14T10:54:57;0.80;;;0.50;;
8419;SDS011;4247;48.550;8.822;2022-11-14T10:57:32;2.53;;;0.57;;
8419;SDS011;4247;48.550;8.822;2022-11-14T10:59:59;4.67;;;0.60;;
8419;SDS011;4247;48.550;8.822;2022-11-14T11:02:26;0.60;;;0.60;;
8419;SDS011;4247;48.550;8.822;2022-11-14T11:05:15;1.10;;;0.97;;
8419;SDS011;4247;48.550;8.822;2022-11-14T11:07:44;0.47;;;0.47;;
8419;SDS011;4247;48.550;8.822;2022-11-14T11:10:30;1.07;;;0.50;;
8419;SDS011;4247;48.550;8.822;2022-11-14T11:13:26;0.40;;;0.40;;
8419;SDS011;4247;48.550;8.822;2022-11-14T11:15:57;0.50;;;0.50;;
8419;SDS011;4247;48.550;8.822;2022-11-14T11:18:27;0.40;;;0.40;;
8419;SDS011;4247;48.550;8.822;2022-11-14T11:21:07;0.87;;;0.50;;
8419;SDS011;4247;48.550;8.822;2022-11-14T11:23:35;1.70;;;0.43;;
8419;SDS011;4247;48.550;8.822;2022-11-14T11:26:16;10.43;;;1.00;;
8419;SDS011;4247;48.550;8.822;2022-11-14T11:28:59;0.73;;;0.47;;
8419;SDS011;4247;48.550;8.822;2022-11-14T11:31:27;0.40;;;0.40;;
8419;SDS011;4247;48.550;8.822;2022-11-14T11:34:15;0.50;;;0.50;;
8419;SDS011;4247;48.550;8.822;2022-11-14T11:36:48;0.53;;;0.50;;
8419;SDS011;4247;48.550;8.822;2022-11-14T11:39:19;0.40;;;0.40;;
8419;SDS011;4247;48.550;8.822;2022-11-14T11:41:50;0.43;;;0.40;;
8419;SDS011;4247;48.550;8.822;2022-11-14T11:44:19;0.43;;;0.43;;
8419;SDS011;4247;48.550;8.822;2022-11-14T11:46:54;0.93;;;0.53;;
8419;SDS011;4247;48.550;8.822;2022-11-14T11:49:27;0.60;;;0.60;;
8419;SDS011;4247;48.550;8.822;2022-11-14T11:52:04;0.50;;;0.50;;
8419;SDS011;4247;48.550;8.822;2022-11-14T11:54:41;0.70;;;0.50;;
8419;SDS011;4247;48.550;8.822;2022-11-14T11:57:22;0.67;;;0.67;;
8419;SDS011;4247;48.550;8.822;2022-11-14T11:59:56;0.73;;;0.63;;
8419;SDS011;4247;48.550;8.822;2022-11-14T12:02:28;0.40;;;0.40;;
8419;SDS011;4247;48.550;8.822;2022-11-14T12:04:55;0.60;;;0.60;;
8419;SDS011;4247;48.550;8.822;2022-11-14T12:07:28;0.43;;;0.43;;
8419;SDS011;4247;48.550;8.822;2022-11-14T12:10:04;0.70;;;0.40;;
8419;SDS011;4247;48.550;8.822;2022-11-14T12:12:41;0.63;;;0.63;;
8419;SDS011;4247;48.550;8.822;2022-11-14T12:15:23;1.47;;;0.50;;
8419;SDS011;4247;48.550;8.822;2022-11-14T12:18:04;0.60;;;0.60;;
8419;SDS011;4247;48.550;8.822;2022-11-14T12:20:44;0.50;;;0.50;;
8419;SDS011;4247;48.550;8.822;2022-11-14T12:26:30;2.00;;;0.60;;
8419;SDS011;4247;48.550;8.822;2022-11-14T12:29:16;0.70;;;0.70;;
8419;SDS011;4247;48.550;8.822;2022-11-14T12:31:57;0.67;;;0.67;;
8419;SDS011;4247;48.550;8.822;2022-11-14T12:34:29;1.47;;;0.77;;
8419;SDS011;4247;48.550;8.822;2022-11-14T12:36:58;2.03;;;0.70;;
8419;SDS011;4247;48.550;8.822;2022-11-14T12:39:26;1.53;;;1.13;;
8419;SDS011;4247;48.550;8.822;2022-11-14T12:42:04;1.57;;;0.73;;
8419;SDS011;4247;48.550;8.822;2022-11-14T12:44:34;0.60;;;0.60;;
8419;SDS011;4247;48.550;8.822;2022-11-14T12:47:16;2.30;;;0.70;;
8419;SDS011;4247;48.550;8.822;2022-11-14T12:49:58;0.60;;;0.60;;
8419;SDS011;4247;48.550;8.822;2022-11-14T12:52:42;1.10;;;0.70;;
8419;SDS011;4247;48.550;8.822;2022-11-14T12:58:22;0.60;;;0.60;;
8419;SDS011;4247;48.550;8.822;2022-11-14T13:01:28;0.70;;;0.70;;
8419;SDS011;4247;48.550;8.822;2022-11-14T13:04:17;1.97;;;0.70;;
8419;SDS011;4247;48.550;8.822;2022-11-14T13:06:57;1.37;;;1.20;;
8419;SDS011;4247;48.550;8.822;2022-11-14T13:09:33;2.40;;;1.53;;
8419;SDS011;4247;48.550;8.822;2022-11-14T13:18:12;7.10;;;1.27;;
8419;SDS011;4247;48.550;8.822;2022-11-14T13:21:05;2.97;;;1.60;;
8419;SDS011;4247;48.550;8.822;2022-11-14T13:23:59;1.33;;;1.20;;
8419;SDS011;4247;48.550;8.822;2022-11-14T13:26:46;2.00;;;1.30;;
8419;SDS011;4247;48.550;8.822;2022-11-14T13:41:33;0.97;;;0.90;;
8419;SDS011;4247;48.550;8.822;2022-11-14T13:47:50;1.43;;;1.23;;
8419;SDS011;4247;48.550;8.822;2022-11-14T13:50:34;3.60;;;1.43;;
8419;SDS011;4247;48.550;8.822;2022-11-14T13:53:10;2.00;;;1.23;;
8419;SDS011;4247;48.550;8.822;2022-11-14T13:55:45;3.00;;;1.13;;
8419;SDS011;4247;48.550;8.822;2022-11-14T13:58:22;5.13;;;1.40;;
8419;SDS011;4247;48.550;8.822;2022-11-14T14:01:06;2.37;;;1.50;;
8419;SDS011;4247;48.550;8.822;2022-11-14T14:03:44;1.30;;;1.20;;
8419;SDS011;4247;48.550;8.822;2022-11-14T14:06:29;1.20;;;1.10;;
8419;SDS011;4247;48.550;8.822;2022-11-14T14:09:09;1.77;;;1.40;;
8419;SDS011;4247;48.550;8.822;2022-11-14T14:11:46;2.80;;;1.10;;
8419;SDS011;4247;48.550;8.822;2022-11-14T14:14:47;2.57;;;1.60;;
8419;SDS011;4247;48.550;8.822;2022-11-14T14:17:26;1.90;;;1.40;;
8419;SDS011;4247;48.550;8.822;2022-11-14T14:20:02;3.87;;;1.63;;
8419;SDS011;4247;48.550;8.822;2022-11-14T14:22:44;2.77;;;1.50;;
8419;SDS011;4247;48.550;8.822;2022-11-14T14:25:20;1.33;;;1.10;;
8419;SDS011;4247;48.550;8.822;2022-11-14T14:27:54;4.00;;;1.63;;
8419;SDS011;4247;48.550;8.822;2022-11-14T14:30:28;3.73;;;1.80;;
8419;SDS011;4247;48.550;8.822;2022-11-14T14:33:01;2.47;;;1.60;;
8419;SDS011;4247;48.550;8.822;2022-11-14T14:35:30;2.83;;;1.60;;
8419;SDS011;4247;48.550;8.822;2022-11-14T14:37:58;4.63;;;1.63;;
8419;SDS011;4247;48.550;8.822;2022-11-14T14:40:27;1.87;;;1.17;;
8419;SDS011;4247;48.550;8.822;2022-11-14T14:42:57;3.67;;;1.73;;
8419;SDS011;4247;48.550;8.822;2022-11-14T14:45:27;3.17;;;1.90;;
8419;SDS011;4247;48.550;8.822;2022-11-14T14:47:59;1.90;;;1.10;;
8419;SDS011;4247;48.550;8.822;2022-11-14T14:50:29;2.17;;;1.27;;
8419;SDS011;4247;48.550;8.822;2022-11-14T14:53:00;2.40;;;1.57;;
8419;SDS011;4247;48.550;8.822;2022-11-14T14:55:32;2.67;;;2.13;;
8419;SDS011;4247;48.550;8.822;2022-11-14T14:58:13;1.57;;;1.30;;
8419;SDS011;4247;48.550;8.822;2022-11-14T15:00:48;2.80;;;1.77;;
8419;SDS011;4247;48.550;8.822;2022-11-14T15:03:17;2.27;;;1.50;;
8419;SDS011;4247;48.550;8.822;2022-11-14T15:05:45;1.97;;;1.27;;
8419;SDS011;4247;48.550;8.822;2022-11-14T15:08:12;4.10;;;1.10;;
8419;SDS011;4247;48.550;8.822;2022-11-14T15:10:42;1.93;;;1.30;;
8419;SDS011;4247;48.550;8.822;2022-11-14T15:13:10;2.17;;;1.47;;
8419;SDS011;4247;48.550;8.822;2022-11-14T15:15:40;2.07;;;1.10;;
8419;SDS011;4247;48.550;8.822;2022-11-14T15:18:13;2.60;;;1.03;;
8419;SDS011;4247;48.550;8.822;2022-11-14T15:23:34;2.40;;;1.13;;
8419;SDS011;4247;48.550;8.822;2022-11-14T15:26:03;3.47;;;1.93;;
8419;SDS011;4247;48.550;8.822;2022-11-14T15:28:36;4.30;;;1.20;;
8419;SDS011;4247;48.550;8.822;2022-11-14T15:31:03;1.50;;;1.40;;
8419;SDS011;4247;48.550;8.822;2022-11-14T15:33:32;7.67;;;3.60;;
8419;SDS011;4247;48.550;8.822;2022-11-14T15:36:05;4.43;;;3.20;;
8419;SDS011;4247;48.550;8.822;2022-11-14T15:38:34;7.83;;;3.67;;
8419;SDS011;4247;48.550;8.822;2022-11-14T15:41:09;8.77;;;4.10;;
8419;SDS011;4247;48.550;8.822;2022-11-14T15:43:47;3.67;;;2.70;;
8419;SDS011;4247;48.550;8.822;2022-11-14T15:49:08;3.63;;;1.80;;
8419;SDS011;4247;48.550;8.822;2022-11-14T15:51:51;4.27;;;1.47;;
8419;SDS011;4247;48.550;8.822;2022-11-14T15:54:22;4.30;;;2.73;;
8419;SDS011;4247;48.550;8.822;2022-11-14T15:56:55;7.97;;;4.80;;
8419;SDS011;4247;48.550;8.822;2022-11-14T15:59:23;5.67;;;4.27;;
8419;SDS011;4247;48.550;8.822;2022-11-14T16:01:51;5.57;;;3.63;;
8419;SDS011;4247;48.550;8.822;2022-11-14T16:04:23;8.27;;;3.53;;
8419;SDS011;4247;48.550;8.822;2022-11-14T16:06:54;3.97;;;3.43;;